createdAt,value
2018-09-14T00:02:09.899Z,15.50
2018-09-14T00:04:38.135Z,15.50
2018-09-14T00:07:06.769Z,15.50
2018-09-14T00:09:35.019Z,15.50
2018-09-14T00:12:03.250Z,15.40
2018-09-14T00:14:31.432Z,15.40
2018-09-14T00:16:59.670Z,15.40
2018-09-14T00:19:27.893Z,15.40
2018-09-14T00:21:56.119Z,15.30
2018-09-14T00:24:24.344Z,15.30
2018-09-14T00:26:52.524Z,15.30
2018-09-14T00:29:20.778Z,15.10
2018-09-14T00:31:49.045Z,15.10
2018-09-14T00:34:17.263Z,14.90
2018-09-14T00:36:45.479Z,14.90
2018-09-14T00:39:13.661Z,14.80
2018-09-14T00:41:42.003Z,15.00
2018-09-14T00:44:10.214Z,15.00
2018-09-14T00:46:38.413Z,14.90
2018-09-14T00:49:06.673Z,14.90
2018-09-14T00:51:34.892Z,14.90
2018-09-14T00:54:03.074Z,14.90
2018-09-14T00:56:31.427Z,14.80
2018-09-14T00:58:59.670Z,14.90
2018-09-14T01:01:27.901Z,14.90
2018-09-14T01:03:56.121Z,14.90
2018-09-14T01:06:24.377Z,14.80
2018-09-14T01:08:52.660Z,14.80
2018-09-14T01:11:20.928Z,14.80
2018-09-14T01:13:49.337Z,14.80
2018-09-14T01:16:17.604Z,14.80
2018-09-14T01:18:45.775Z,14.70
2018-09-14T01:21:13.992Z,14.60
2018-09-14T01:23:42.179Z,14.40
2018-09-14T01:26:10.422Z,14.40
2018-09-14T01:28:38.651Z,14.40
2018-09-14T01:31:06.844Z,14.50
2018-09-14T01:33:35.628Z,14.50
2018-09-14T01:36:09.298Z,14.50
2018-09-14T01:38:37.481Z,14.60
2018-09-14T01:41:05.849Z,14.70
2018-09-14T01:43:34.078Z,14.60
2018-09-14T01:46:02.342Z,14.60
2018-09-14T01:48:30.641Z,14.50
2018-09-14T01:50:59.041Z,14.50
2018-09-14T01:53:27.383Z,14.40
2018-09-14T01:55:55.592Z,14.40
2018-09-14T01:58:23.826Z,14.40
2018-09-14T02:00:52.145Z,14.40
2018-09-14T02:03:20.420Z,14.40
2018-09-14T02:05:48.610Z,14.40
2018-09-14T02:08:16.879Z,14.40
2018-09-14T02:10:45.139Z,14.30
2018-09-14T02:13:13.357Z,14.30
2018-09-14T02:15:41.589Z,14.30
2018-09-14T02:18:09.864Z,14.30
2018-09-14T02:20:38.058Z,14.30
2018-09-14T02:23:06.383Z,14.30
2018-09-14T02:25:34.624Z,14.20
2018-09-14T02:28:02.820Z,14.10
2018-09-14T02:30:31.065Z,14.10
2018-09-14T02:33:00.501Z,14.10
2018-09-14T02:35:28.830Z,14.00
2018-09-14T02:37:57.040Z,13.90
2018-09-14T02:40:25.264Z,13.90
2018-09-14T02:42:53.533Z,13.90
2018-09-14T02:45:21.740Z,13.90
2018-09-14T02:47:49.945Z,14.00
2018-09-14T02:50:18.171Z,14.00
2018-09-14T02:52:46.400Z,14.00
2018-09-14T02:55:14.586Z,14.00
2018-09-14T02:57:42.804Z,13.90
2018-09-14T03:00:11.235Z,14.00
2018-09-14T03:02:39.367Z,13.90
2018-09-14T03:05:07.633Z,13.90
2018-09-14T03:07:35.813Z,13.90
2018-09-14T03:10:04.480Z,13.90
2018-09-14T03:12:32.682Z,13.90
2018-09-14T03:15:00.881Z,13.90
2018-09-14T03:17:29.308Z,13.90
2018-09-14T03:19:57.522Z,13.90
2018-09-14T03:22:25.790Z,13.80
2018-09-14T03:24:54.045Z,13.80
2018-09-14T03:27:22.234Z,13.80
2018-09-14T03:29:50.414Z,13.80
2018-09-14T03:32:18.647Z,13.80
2018-09-14T03:34:46.830Z,13.80
2018-09-14T03:37:15.027Z,13.70
2018-09-14T03:39:43.205Z,13.70
2018-09-14T03:42:11.469Z,13.70
2018-09-14T03:44:39.951Z,13.70
2018-09-14T03:47:08.166Z,13.70
2018-09-14T03:49:36.435Z,13.70
2018-09-14T03:52:04.709Z,13.70
2018-09-14T03:54:32.957Z,13.60
2018-09-14T03:57:03.875Z,13.60
2018-09-14T03:59:33.477Z,13.70
2018-09-14T04:02:01.809Z,13.70
2018-09-14T04:04:30.185Z,13.60
2018-09-14T04:06:58.538Z,13.60
2018-09-14T04:09:26.741Z,13.50
2018-09-14T04:11:55.001Z,13.60
2018-09-14T04:14:23.211Z,13.50
2018-09-14T04:16:51.393Z,13.30
2018-09-14T04:19:19.568Z,13.30
2018-09-14T04:21:47.828Z,13.10
2018-09-14T04:24:16.071Z,13.20
2018-09-14T04:26:44.312Z,13.20
2018-09-14T04:29:12.553Z,13.30
2018-09-14T04:31:40.788Z,13.30
2018-09-14T04:34:09.055Z,13.40
2018-09-14T04:36:37.306Z,13.40
2018-09-14T04:39:08.080Z,13.20
2018-09-14T04:41:36.370Z,13.20
2018-09-14T04:44:04.575Z,13.30
2018-09-14T04:46:32.805Z,13.40
2018-09-14T04:49:00.956Z,13.20
2018-09-14T04:51:31.090Z,13.20
2018-09-14T04:53:59.281Z,13.20
2018-09-14T04:56:27.510Z,13.20
2018-09-14T04:58:55.771Z,13.20
2018-09-14T05:01:23.986Z,13.20
2018-09-14T05:03:52.235Z,13.20
2018-09-14T05:06:20.571Z,13.20
2018-09-14T05:08:48.833Z,13.10
2018-09-14T05:11:17.072Z,13.20
2018-09-14T05:13:45.302Z,13.40
2018-09-14T05:16:13.489Z,13.50
2018-09-14T05:18:41.761Z,13.40
2018-09-14T05:21:09.952Z,13.30
2018-09-14T05:23:38.208Z,13.30
2018-09-14T05:26:06.488Z,13.40
2018-09-14T05:28:34.714Z,13.20
2018-09-14T05:31:02.969Z,13.20
2018-09-14T05:33:31.245Z,13.10
2018-09-14T05:35:59.438Z,13.10
2018-09-14T05:38:27.731Z,12.90
2018-09-14T05:40:55.940Z,12.80
2018-09-14T05:43:24.244Z,12.70
2018-09-14T05:45:53.916Z,12.80
2018-09-14T05:48:22.709Z,13.00
2018-09-14T05:50:50.908Z,13.00
2018-09-14T05:53:19.128Z,13.00
2018-09-14T05:55:47.369Z,13.10
2018-09-14T05:58:15.611Z,13.10
2018-09-14T06:00:43.849Z,13.20
2018-09-14T06:03:12.338Z,13.10
2018-09-14T06:05:40.597Z,13.10
2018-09-14T06:08:08.814Z,13.30
2018-09-14T06:10:37.031Z,13.50
2018-09-14T06:13:05.248Z,13.70
2018-09-14T06:15:33.484Z,13.70
2018-09-14T06:18:01.693Z,13.70
2018-09-14T06:20:29.932Z,13.70
2018-09-14T06:22:58.172Z,13.70
2018-09-14T06:25:26.414Z,13.60
2018-09-14T06:27:54.637Z,13.60
2018-09-14T06:30:22.876Z,13.60
2018-09-14T06:32:51.142Z,13.60
2018-09-14T06:35:19.329Z,13.80
2018-09-14T06:37:47.546Z,13.80
2018-09-14T06:40:15.794Z,13.90
2018-09-14T06:42:44.061Z,13.90
2018-09-14T06:45:12.314Z,13.80
2018-09-14T06:47:40.507Z,13.80
2018-09-14T06:50:08.708Z,13.80
2018-09-14T06:52:36.916Z,13.90
2018-09-14T06:55:05.150Z,13.80
2018-09-14T06:57:33.353Z,13.80
2018-09-14T07:00:01.627Z,13.90
2018-09-14T07:02:29.788Z,14.00
2018-09-14T07:04:58.464Z,14.00
2018-09-14T07:07:26.695Z,13.80
2018-09-14T07:09:54.976Z,13.80
2018-09-14T07:12:23.213Z,13.90
2018-09-14T07:14:51.427Z,13.90
2018-09-14T07:17:19.691Z,13.90
2018-09-14T07:19:47.921Z,14.00
2018-09-14T07:22:16.097Z,14.00
2018-09-14T07:24:44.595Z,14.10
2018-09-14T07:27:12.532Z,14.10
2018-09-14T07:29:40.777Z,14.30
2018-09-14T07:32:09.024Z,14.50
2018-09-14T07:34:37.263Z,14.40
2018-09-14T07:37:05.755Z,14.60
2018-09-14T07:39:34.006Z,14.60
2018-09-14T07:42:02.228Z,14.60
2018-09-14T07:44:30.472Z,14.70
2018-09-14T07:46:58.699Z,14.80
2018-09-14T07:49:26.952Z,14.80
2018-09-14T07:51:55.175Z,14.90
2018-09-14T07:54:23.449Z,15.10
2018-09-14T07:56:51.698Z,15.20
2018-09-14T07:59:19.904Z,15.30
2018-09-14T08:01:48.155Z,15.30
2018-09-14T08:04:16.401Z,15.30
2018-09-14T08:06:44.744Z,15.50
2018-09-14T08:09:13.955Z,15.70
2018-09-14T08:11:42.539Z,15.80
2018-09-14T08:14:11.372Z,15.80
2018-09-14T08:16:39.728Z,15.90
2018-09-14T08:19:07.900Z,16.00
2018-09-14T08:21:36.612Z,16.20
2018-09-14T08:24:04.739Z,16.30
2018-09-14T08:26:33.036Z,16.40
2018-09-14T08:29:01.233Z,16.20
2018-09-14T08:31:29.472Z,16.30
2018-09-14T08:33:57.728Z,16.40
2018-09-14T08:36:26.005Z,16.60
2018-09-14T08:38:54.197Z,16.90
2018-09-14T08:41:22.415Z,17.00
2018-09-14T08:43:50.634Z,17.00
2018-09-14T08:46:18.925Z,17.10
2018-09-14T08:48:47.174Z,17.20
2018-09-14T08:51:15.344Z,17.10
2018-09-14T08:53:43.607Z,17.10
2018-09-14T08:56:11.828Z,17.50
2018-09-14T08:58:40.058Z,17.80
2018-09-14T09:01:08.326Z,17.90
2018-09-14T09:03:36.537Z,18.00
2018-09-14T09:06:04.722Z,18.10
2018-09-14T09:08:32.968Z,18.20
2018-09-14T09:11:01.238Z,18.20
2018-09-14T09:13:29.469Z,18.90
2018-09-14T09:15:57.703Z,19.20
2018-09-14T09:18:25.885Z,19.50
2018-09-14T09:20:54.132Z,20.50
2018-09-14T09:23:22.417Z,22.20
2018-09-14T09:25:50.571Z,23.50
2018-09-14T09:28:18.934Z,25.00
2018-09-14T09:30:47.147Z,26.00
2018-09-14T09:33:15.402Z,26.90
2018-09-14T09:35:43.609Z,27.10
2018-09-14T09:38:11.891Z,27.60
2018-09-14T09:40:41.006Z,27.40
2018-09-14T09:43:09.293Z,27.60
2018-09-14T09:45:37.484Z,28.30
2018-09-14T09:48:05.725Z,28.80
2018-09-14T09:50:33.908Z,28.20
2018-09-14T09:53:02.150Z,28.70
2018-09-14T09:55:30.405Z,29.10
2018-09-14T09:57:58.640Z,29.90
2018-09-14T10:00:34.308Z,30.00
2018-09-14T10:03:07.992Z,29.70
2018-09-14T10:05:41.772Z,30.00
2018-09-14T10:08:10.005Z,30.50
2018-09-14T10:10:38.203Z,30.10
2018-09-14T10:13:06.412Z,30.70
2018-09-14T10:15:34.698Z,31.00
2018-09-14T10:18:02.909Z,30.80
2018-09-14T10:20:31.169Z,31.50
2018-09-14T10:22:59.360Z,31.20
2018-09-14T10:25:27.587Z,31.60
2018-09-14T10:27:57.147Z,31.40
2018-09-14T10:30:25.329Z,30.80
2018-09-14T10:32:53.530Z,31.30
2018-09-14T10:35:21.759Z,31.20
2018-09-14T10:37:50.017Z,31.10
2018-09-14T10:40:18.314Z,31.40
2018-09-14T10:42:46.595Z,31.60
2018-09-14T10:45:14.779Z,31.50
2018-09-14T10:47:42.916Z,32.20
2018-09-14T10:50:11.151Z,33.00
2018-09-14T10:52:39.436Z,32.70
2018-09-14T10:55:07.659Z,32.60
2018-09-14T10:57:35.923Z,32.00
2018-09-14T11:00:04.309Z,29.90
2018-09-14T11:02:32.528Z,30.40
2018-09-14T11:05:00.797Z,29.60
2018-09-14T11:07:30.236Z,29.80
2018-09-14T11:09:58.483Z,30.40
2018-09-14T11:12:26.751Z,31.60
2018-09-14T11:14:54.938Z,32.20
2018-09-14T11:17:23.145Z,31.90
2018-09-14T11:19:51.376Z,30.90
2018-09-14T11:22:19.695Z,30.20
2018-09-14T11:24:47.990Z,30.10
2018-09-14T11:27:16.178Z,30.40
2018-09-14T11:29:44.440Z,30.90
2018-09-14T11:32:12.673Z,29.30
2018-09-14T11:34:40.899Z,28.60
2018-09-14T11:37:09.146Z,27.70
2018-09-14T11:39:37.313Z,27.50
2018-09-14T11:42:05.600Z,27.80
2018-09-14T11:44:33.849Z,27.10
2018-09-14T11:47:02.119Z,26.80
2018-09-14T11:49:30.367Z,25.60
2018-09-14T11:51:58.594Z,24.70
2018-09-14T11:54:26.911Z,24.70
2018-09-14T11:56:55.040Z,24.80
2018-09-14T11:59:23.303Z,24.90
2018-09-14T12:01:51.584Z,24.90
2018-09-14T12:04:19.840Z,24.70
2018-09-14T12:06:48.108Z,24.50
2018-09-14T12:09:16.322Z,23.80
2018-09-14T12:11:44.576Z,23.90
2018-09-14T12:14:12.765Z,23.70
2018-09-14T12:16:41.046Z,24.30
2018-09-14T12:19:09.247Z,25.50
2018-09-14T12:21:37.511Z,26.20
2018-09-14T12:24:05.740Z,26.40
2018-09-14T12:26:33.967Z,26.90
2018-09-14T12:29:02.232Z,27.60
2018-09-14T12:31:31.261Z,28.50
2018-09-14T12:33:59.590Z,29.80
2018-09-14T12:36:27.778Z,30.00
2018-09-14T12:38:56.120Z,30.20
2018-09-14T12:41:24.397Z,30.80
2018-09-14T12:43:52.624Z,31.30
2018-09-14T12:46:21.008Z,31.40
2018-09-14T12:48:49.397Z,30.50
2018-09-14T12:51:17.506Z,31.00
2018-09-14T12:53:45.760Z,30.90
2018-09-14T12:56:13.988Z,31.30
2018-09-14T12:58:42.199Z,31.50
2018-09-14T13:01:10.655Z,31.60
2018-09-14T13:03:39.036Z,32.10
2018-09-14T13:06:07.345Z,31.70
2018-09-14T13:08:35.698Z,31.30
2018-09-14T13:11:03.968Z,30.30
2018-09-14T13:13:32.329Z,29.70
2018-09-14T13:16:00.590Z,29.00
2018-09-14T13:18:29.723Z,28.10
2018-09-14T13:20:58.229Z,27.60
2018-09-14T13:23:26.783Z,26.40
2018-09-14T13:25:55.289Z,26.80
2018-09-14T13:28:24.999Z,27.60
2018-09-14T13:30:55.276Z,28.50
2018-09-14T13:33:26.200Z,29.20
2018-09-14T13:35:55.386Z,29.20
2018-09-14T13:38:23.816Z,29.20
2018-09-14T13:40:52.903Z,29.20
2018-09-14T13:43:21.802Z,28.60
2018-09-14T13:45:53.485Z,28.70
2018-09-14T13:48:22.894Z,28.30
2018-09-14T13:50:51.336Z,28.30
2018-09-14T13:53:19.982Z,28.00
2018-09-14T13:55:48.238Z,27.40
2018-09-14T13:58:16.486Z,27.10
2018-09-14T14:00:44.671Z,26.70
2018-09-14T14:03:12.992Z,26.70
2018-09-14T14:05:41.277Z,26.80
2018-09-14T14:08:09.581Z,26.80
2018-09-14T14:10:37.867Z,26.50
2018-09-14T14:13:06.211Z,25.60
2018-09-14T14:15:34.465Z,25.60
2018-09-14T14:18:02.855Z,25.70
2018-09-14T14:20:31.137Z,25.70
2018-09-14T14:22:59.425Z,25.30
2018-09-14T14:25:27.683Z,25.60
2018-09-14T14:27:55.903Z,25.30
2018-09-14T14:30:24.139Z,25.30
2018-09-14T14:32:52.417Z,25.40
2018-09-14T14:35:20.698Z,25.50
2018-09-14T14:37:48.982Z,25.30
2018-09-14T14:40:17.197Z,25.40
2018-09-14T14:42:45.440Z,25.40
2018-09-14T14:45:13.688Z,25.50
2018-09-14T14:47:42.022Z,25.70
2018-09-14T14:50:10.228Z,25.80
2018-09-14T14:52:38.487Z,25.60
2018-09-14T14:55:06.743Z,25.40
2018-09-14T14:57:34.952Z,25.20
2018-09-14T15:00:03.324Z,25.00
2018-09-14T15:02:31.625Z,25.00
2018-09-14T15:04:59.851Z,24.90
2018-09-14T15:07:28.205Z,24.70
2018-09-14T15:09:56.403Z,24.70
2018-09-14T15:12:24.708Z,24.50
2018-09-14T15:14:53.037Z,24.40
2018-09-14T15:17:21.499Z,24.30
2018-09-14T15:19:49.698Z,24.40
2018-09-14T15:22:17.920Z,24.30
2018-09-14T15:24:46.124Z,24.30
2018-09-14T15:27:14.484Z,24.20
2018-09-14T15:29:42.750Z,23.90
2018-09-14T15:32:10.949Z,23.90
2018-09-14T15:34:39.136Z,23.80
2018-09-14T15:37:07.383Z,23.80
2018-09-14T15:39:35.501Z,23.70
2018-09-14T15:42:03.680Z,23.50
2018-09-14T15:44:31.849Z,23.40
2018-09-14T15:47:00.073Z,23.20
2018-09-14T15:49:28.271Z,22.80
2018-09-14T15:51:56.460Z,22.80
2018-09-14T15:54:24.678Z,22.60
2018-09-14T15:56:52.880Z,22.70
2018-09-14T15:59:21.084Z,22.90
2018-09-14T16:01:49.360Z,22.80
2018-09-14T16:04:18.043Z,22.60
2018-09-14T16:06:46.256Z,22.60
2018-09-14T16:09:14.511Z,22.60
2018-09-14T16:11:42.684Z,22.50
2018-09-14T16:14:10.860Z,22.40
2018-09-14T16:16:39.044Z,22.20
2018-09-14T16:19:07.316Z,22.00
2018-09-14T16:21:35.536Z,22.00
2018-09-14T16:24:03.820Z,22.00
2018-09-14T16:26:32.070Z,21.80
2018-09-14T16:29:00.264Z,21.60
2018-09-14T16:31:28.470Z,21.70
2018-09-14T16:33:56.712Z,21.50
2018-09-14T16:36:24.917Z,21.50
2018-09-14T16:38:53.165Z,21.50
2018-09-14T16:41:21.351Z,21.50
2018-09-14T16:43:49.583Z,21.40
2018-09-14T16:46:17.774Z,21.60
2018-09-14T16:48:46.008Z,21.60
2018-09-14T16:51:14.218Z,21.40
2018-09-14T16:53:42.400Z,21.50
2018-09-14T16:56:11.205Z,21.40
2018-09-14T16:58:39.382Z,21.50
2018-09-14T17:01:07.563Z,21.50
2018-09-14T17:03:35.848Z,21.30
2018-09-14T17:06:04.140Z,21.20
2018-09-14T17:08:32.372Z,21.10
2018-09-14T17:11:00.552Z,21.00
2018-09-14T17:13:28.795Z,21.10
2018-09-14T17:15:56.997Z,20.90
2018-09-14T17:18:25.197Z,20.70
2018-09-14T17:20:53.381Z,20.80
2018-09-14T17:23:21.592Z,20.90
2018-09-14T17:25:49.839Z,20.90
2018-09-14T17:28:18.063Z,20.90
2018-09-14T17:30:46.257Z,21.00
2018-09-14T17:33:14.477Z,20.90
2018-09-14T17:35:42.916Z,20.80
2018-09-14T17:38:11.110Z,20.80
2018-09-14T17:40:39.377Z,20.80
2018-09-14T17:43:07.593Z,20.70
2018-09-14T17:45:35.869Z,20.70
2018-09-14T17:48:04.071Z,20.80
2018-09-14T17:50:32.328Z,20.60
2018-09-14T17:53:00.655Z,20.70
2018-09-14T17:55:28.856Z,20.80
2018-09-14T17:57:57.083Z,20.70
2018-09-14T18:00:25.349Z,20.50
2018-09-14T18:02:53.645Z,20.40
2018-09-14T18:05:21.978Z,20.40
2018-09-14T18:07:50.238Z,20.30
2018-09-14T18:10:18.474Z,20.20
2018-09-14T18:12:47.192Z,20.10
2018-09-14T18:15:15.394Z,20.20
2018-09-14T18:17:44.690Z,20.20
2018-09-14T18:20:12.922Z,20.30
2018-09-14T18:22:41.113Z,20.30
2018-09-14T18:25:09.325Z,20.20
2018-09-14T18:27:37.582Z,20.20
2018-09-14T18:30:07.189Z,20.30
2018-09-14T18:32:35.546Z,20.30
2018-09-14T18:35:03.881Z,20.40
2018-09-14T18:37:32.062Z,20.30
2018-09-14T18:40:00.332Z,20.30
2018-09-14T18:42:28.527Z,20.30
2018-09-14T18:44:56.772Z,20.30
2018-09-14T18:47:25.005Z,20.20
2018-09-14T18:49:53.253Z,20.20
2018-09-14T18:52:21.466Z,20.20
2018-09-14T18:54:50.125Z,20.10
2018-09-14T18:57:18.360Z,20.10
2018-09-14T18:59:46.694Z,20.00
2018-09-14T19:02:14.965Z,20.10
2018-09-14T19:04:43.277Z,20.00
2018-09-14T19:07:11.571Z,19.90
2018-09-14T19:09:39.918Z,19.90
2018-09-14T19:12:08.239Z,19.90
2018-09-14T19:14:36.485Z,19.70
2018-09-14T19:17:04.742Z,19.70
2018-09-14T19:19:33.718Z,19.50
2018-09-14T19:22:04.585Z,19.50
2018-09-14T19:24:33.603Z,19.50
2018-09-14T19:27:02.765Z,19.40
2018-09-14T19:29:31.698Z,19.30
2018-09-14T19:32:00.352Z,19.30
2018-09-14T19:34:28.605Z,19.20
2018-09-14T19:36:56.958Z,19.10
2018-09-14T19:39:25.374Z,19.10
2018-09-14T19:41:54.206Z,19.00
2018-09-14T19:44:22.802Z,19.00
2018-09-14T19:46:51.115Z,19.10
2018-09-14T19:49:19.511Z,19.00
2018-09-14T19:51:48.254Z,19.10
2018-09-14T19:54:16.815Z,19.10
2018-09-14T19:56:45.482Z,18.90
2018-09-14T19:59:14.049Z,18.90
2018-09-14T20:01:42.290Z,18.80
2018-09-14T20:04:10.997Z,18.80
2018-09-14T20:06:39.486Z,18.90
2018-09-14T20:09:10.559Z,18.90
2018-09-14T20:11:39.062Z,18.80
2018-09-14T20:14:08.014Z,18.90
2018-09-14T20:16:36.455Z,18.80
2018-09-14T20:19:05.405Z,18.80
2018-09-14T20:21:34.018Z,18.70
2018-09-14T20:24:02.383Z,18.70
2018-09-14T20:26:30.744Z,18.60
2018-09-14T20:28:59.098Z,18.40
2018-09-14T20:31:27.456Z,18.30
2018-09-14T20:33:55.959Z,18.30
2018-09-14T20:36:24.247Z,18.20
2018-09-14T20:38:52.535Z,18.10
2018-09-14T20:41:20.727Z,18.10
2018-09-14T20:43:48.958Z,18.00
2018-09-14T20:46:17.173Z,17.80
2018-09-14T20:48:45.370Z,17.70
2018-09-14T20:51:13.586Z,17.80
2018-09-14T20:53:42.128Z,17.70
2018-09-14T20:56:10.315Z,17.80
2018-09-14T20:58:38.699Z,17.80
2018-09-14T21:01:07.371Z,17.80
2018-09-14T21:03:35.861Z,17.80
2018-09-14T21:06:04.646Z,17.90
2018-09-14T21:08:32.951Z,17.90
2018-09-14T21:11:01.113Z,18.00
2018-09-14T21:13:29.610Z,18.00
2018-09-14T21:15:58.307Z,18.00
2018-09-14T21:18:26.806Z,18.10
2018-09-14T21:20:55.715Z,18.00
2018-09-14T21:23:24.424Z,18.10
2018-09-14T21:25:53.277Z,18.20
2018-09-14T21:28:22.003Z,18.20
2018-09-14T21:30:50.485Z,18.00
2018-09-14T21:33:18.755Z,18.00
2018-09-14T21:35:47.431Z,18.10
2018-09-14T21:38:15.816Z,18.20
2018-09-14T21:40:45.345Z,18.20
2018-09-14T21:43:13.749Z,18.20
2018-09-14T21:45:42.665Z,18.20
2018-09-14T21:48:11.338Z,18.20
2018-09-14T21:50:39.747Z,18.10
2018-09-14T21:53:08.090Z,18.10
2018-09-14T21:55:36.301Z,18.20
2018-09-14T21:58:04.455Z,18.10
2018-09-14T22:00:38.016Z,18.10
2018-09-14T22:03:06.287Z,18.10
2018-09-14T22:05:34.471Z,18.20
2018-09-14T22:08:02.685Z,18.10
2018-09-14T22:10:30.914Z,18.10
2018-09-14T22:12:59.179Z,18.20
2018-09-14T22:15:27.413Z,18.20
2018-09-14T22:17:55.733Z,18.30
2018-09-14T22:20:23.979Z,18.20
2018-09-14T22:22:52.142Z,18.20
2018-09-14T22:25:20.343Z,18.20
2018-09-14T22:27:49.468Z,18.30
2018-09-14T22:30:17.695Z,18.20
2018-09-14T22:32:45.959Z,18.20
2018-09-14T22:35:14.245Z,18.10
2018-09-14T22:37:42.698Z,18.20
2018-09-14T22:40:10.918Z,18.10
2018-09-14T22:42:39.399Z,18.10
2018-09-14T22:45:07.639Z,18.10
2018-09-14T22:47:35.865Z,18.10
2018-09-14T22:50:04.083Z,18.00
2018-09-14T22:52:32.381Z,18.00
2018-09-14T22:55:00.576Z,18.10
2018-09-14T22:57:28.800Z,18.10
2018-09-14T22:59:56.994Z,18.10
2018-09-14T23:02:25.241Z,18.00
2018-09-14T23:04:53.437Z,18.00
2018-09-14T23:07:21.693Z,18.00
2018-09-14T23:09:49.881Z,18.00
2018-09-14T23:12:18.082Z,18.00
2018-09-14T23:14:46.255Z,18.00
2018-09-14T23:17:14.514Z,18.10
2018-09-14T23:19:42.706Z,18.10
2018-09-14T23:22:10.933Z,18.10
2018-09-14T23:24:39.186Z,18.10
2018-09-14T23:27:07.399Z,18.10
2018-09-14T23:29:35.586Z,18.10
2018-09-14T23:32:04.871Z,18.10
2018-09-14T23:34:33.104Z,18.20
2018-09-14T23:37:01.339Z,18.10
2018-09-14T23:39:29.568Z,18.10
2018-09-14T23:41:57.778Z,18.10
2018-09-14T23:44:25.988Z,18.10
2018-09-14T23:46:54.208Z,18.10
2018-09-14T23:49:22.422Z,18.10
2018-09-14T23:51:50.712Z,18.10
2018-09-14T23:54:18.957Z,18.20
2018-09-14T23:56:47.143Z,18.20
2018-09-14T23:59:15.282Z,18.10
